sensor_id;sensor_type;location;lat;lon;timestamp;pressure;altitude;pressure_sealevel;temperature;humidity
6096;BME280;25081;42.698;23.298;2023-01-30T00:00:45;95582.52;;;-0.45;79.36
6096;BME280;25081;42.698;23.298;2023-01-30T00:02:56;95585.70;;;-0.51;80.28
6096;BME280;25081;42.698;23.298;2023-01-30T00:05:07;95582.33;;;-0.47;80.19
6096;BME280;25081;42.698;23.298;2023-01-30T00:07:18;95576.31;;;-0.44;80.22
6096;BME280;25081;42.698;23.298;2023-01-30T00:09:28;95574.47;;;-0.47;80.31
6096;BME280;25081;42.698;23.298;2023-01-30T00:11:39;95565.75;;;-0.62;80.93
6096;BME280;25081;42.698;23.298;2023-01-30T00:13:49;95565.72;;;-0.52;80.90
6096;BME280;25081;42.698;23.298;2023-01-30T00:16:00;95578.43;;;-0.57;81.00
6096;BME280;25081;42.698;23.298;2023-01-30T00:18:10;95567.44;;;-0.47;80.80
6096;BME280;25081;42.698;23.298;2023-01-30T00:20:21;95573.58;;;-0.52;80.49
6096;BME280;25081;42.698;23.298;2023-01-30T00:22:32;95576.52;;;-0.65;81.21
6096;BME280;25081;42.698;23.298;2023-01-30T00:24:42;95574.27;;;-0.73;81.61
6096;BME280;25081;42.698;23.298;2023-01-30T00:26:53;95575.84;;;-0.67;81.85
6096;BME280;25081;42.698;23.298;2023-01-30T00:29:03;95576.48;;;-0.55;81.67
6096;BME280;25081;42.698;23.298;2023-01-30T00:31:14;95576.34;;;-0.53;81.10
6096;BME280;25081;42.698;23.298;2023-01-30T00:33:24;95569.88;;;-0.59;80.87
6096;BME280;25081;42.698;23.298;2023-01-30T00:35:35;95574.55;;;-0.76;81.36
6096;BME280;25081;42.698;23.298;2023-01-30T00:37:45;95570.26;;;-0.77;82.08
6096;BME280;25081;42.698;23.298;2023-01-30T00:39:55;95569.34;;;-0.86;82.09
6096;BME280;25081;42.698;23.298;2023-01-30T00:42:07;95568.13;;;-0.78;82.31
6096;BME280;25081;42.698;23.298;2023-01-30T00:44:34;95564.91;;;-0.76;81.47
6096;BME280;25081;42.698;23.298;2023-01-30T00:47:03;95554.05;;;-0.91;81.62
6096;BME280;25081;42.698;23.298;2023-01-30T00:49:16;95558.52;;;-0.97;81.90
6096;BME280;25081;42.698;23.298;2023-01-30T00:51:26;95556.05;;;-0.98;82.29
6096;BME280;25081;42.698;23.298;2023-01-30T00:53:37;95552.67;;;-0.85;82.31
6096;BME280;25081;42.698;23.298;2023-01-30T00:55:49;95552.39;;;-0.92;82.06
6096;BME280;25081;42.698;23.298;2023-01-30T00:57:58;95546.80;;;-0.83;82.26
6096;BME280;25081;42.698;23.298;2023-01-30T01:00:11;95549.48;;;-0.89;82.13
6096;BME280;25081;42.698;23.298;2023-01-30T01:02:22;95552.91;;;-0.78;82.24
6096;BME280;25081;42.698;23.298;2023-01-30T01:04:32;95547.80;;;-0.94;82.00
6096;BME280;25081;42.698;23.298;2023-01-30T01:06:43;95548.62;;;-0.93;82.15
6096;BME280;25081;42.698;23.298;2023-01-30T01:08:53;95550.80;;;-0.89;82.38
6096;BME280;25081;42.698;23.298;2023-01-30T01:11:04;95547.56;;;-0.77;82.34
6096;BME280;25081;42.698;23.298;2023-01-30T01:13:15;95545.64;;;-0.84;81.90
6096;BME280;25081;42.698;23.298;2023-01-30T01:15:25;95549.08;;;-0.84;82.03
6096;BME280;25081;42.698;23.298;2023-01-30T01:17:36;95538.95;;;-0.83;82.16
6096;BME280;25081;42.698;23.298;2023-01-30T01:19:46;95549.00;;;-0.88;81.94
6096;BME280;25081;42.698;23.298;2023-01-30T01:21:57;95545.16;;;-0.84;82.04
6096;BME280;25081;42.698;23.298;2023-01-30T01:24:10;95540.09;;;-0.95;82.13
6096;BME280;25081;42.698;23.298;2023-01-30T01:26:20;95541.56;;;-0.83;82.38
6096;BME280;25081;42.698;23.298;2023-01-30T01:28:31;95527.59;;;-0.88;82.22
6096;BME280;25081;42.698;23.298;2023-01-30T01:30:41;95535.07;;;-0.79;82.16
6096;BME280;25081;42.698;23.298;2023-01-30T01:32:52;95530.49;;;-0.91;81.95
6096;BME280;25081;42.698;23.298;2023-01-30T01:35:03;95529.52;;;-0.90;82.25
6096;BME280;25081;42.698;23.298;2023-01-30T01:37:13;95525.36;;;-0.96;82.21
6096;BME280;25081;42.698;23.298;2023-01-30T01:39:24;95522.13;;;-1.04;82.24
6096;BME280;25081;42.698;23.298;2023-01-30T01:41:34;95526.67;;;-0.96;82.41
6096;BME280;25081;42.698;23.298;2023-01-30T01:44:01;95528.87;;;-1.01;82.59
6096;BME280;25081;42.698;23.298;2023-01-30T01:46:12;95524.67;;;-1.08;82.98
6096;BME280;25081;42.698;23.298;2023-01-30T01:48:23;95526.37;;;-0.93;82.46
6096;BME280;25081;42.698;23.298;2023-01-30T01:50:41;95527.73;;;-0.89;82.52
6096;BME280;25081;42.698;23.298;2023-01-30T01:52:43;95522.11;;;-0.94;81.87
6096;BME280;25081;42.698;23.298;2023-01-30T01:54:54;95522.81;;;-1.02;82.08
6096;BME280;25081;42.698;23.298;2023-01-30T01:57:05;95527.81;;;-0.85;82.51
6096;BME280;25081;42.698;23.298;2023-01-30T01:59:17;95520.30;;;-0.84;82.16
6096;BME280;25081;42.698;23.298;2023-01-30T02:01:26;95528.29;;;-0.85;81.77
6096;BME280;25081;42.698;23.298;2023-01-30T02:03:39;95530.16;;;-0.92;82.16
6096;BME280;25081;42.698;23.298;2023-01-30T02:05:48;95520.22;;;-0.88;81.63
6096;BME280;25081;42.698;23.298;2023-01-30T02:07:59;95527.87;;;-0.91;81.36
6096;BME280;25081;42.698;23.298;2023-01-30T02:10:12;95526.93;;;-0.99;81.75
6096;BME280;25081;42.698;23.298;2023-01-30T02:12:21;95534.86;;;-0.95;81.46
6096;BME280;25081;42.698;23.298;2023-01-30T02:14:32;95525.96;;;-0.98;81.14
6096;BME280;25081;42.698;23.298;2023-01-30T02:16:42;95532.84;;;-0.97;81.78
6096;BME280;25081;42.698;23.298;2023-01-30T02:18:53;95530.22;;;-0.97;81.83
6096;BME280;25081;42.698;23.298;2023-01-30T02:31:59;95523.06;;;-0.85;81.77
6096;BME280;25081;42.698;23.298;2023-01-30T02:34:17;95521.34;;;-0.91;81.50
6096;BME280;25081;42.698;23.298;2023-01-30T02:36:30;95519.16;;;-0.95;81.34
6096;BME280;25081;42.698;23.298;2023-01-30T02:38:40;95525.34;;;-0.87;81.46
6096;BME280;25081;42.698;23.298;2023-01-30T02:40:54;95524.63;;;-0.89;81.34
6096;BME280;25081;42.698;23.298;2023-01-30T02:43:05;95519.52;;;-0.80;81.15
6096;BME280;25081;42.698;23.298;2023-01-30T02:45:17;95518.55;;;-0.79;80.92
6096;BME280;25081;42.698;23.298;2023-01-30T02:47:28;95518.05;;;-0.93;80.99
6096;BME280;25081;42.698;23.298;2023-01-30T02:49:39;95512.62;;;-0.95;81.08
6096;BME280;25081;42.698;23.298;2023-01-30T02:51:49;95511.04;;;-1.02;81.30
6096;BME280;25081;42.698;23.298;2023-01-30T02:54:00;95506.97;;;-1.00;81.57
6096;BME280;25081;42.698;23.298;2023-01-30T02:56:10;95507.16;;;-0.98;81.54
6096;BME280;25081;42.698;23.298;2023-01-30T02:58:21;95509.90;;;-0.90;81.38
6096;BME280;25081;42.698;23.298;2023-01-30T03:00:37;95511.72;;;-1.00;81.45
6096;BME280;25081;42.698;23.298;2023-01-30T03:03:02;95514.20;;;-1.08;81.54
6096;BME280;25081;42.698;23.298;2023-01-30T03:05:27;95516.91;;;-1.04;81.84
6096;BME280;25081;42.698;23.298;2023-01-30T03:07:40;95519.87;;;-0.89;81.42
6096;BME280;25081;42.698;23.298;2023-01-30T03:09:52;95517.44;;;-1.00;81.14
6096;BME280;25081;42.698;23.298;2023-01-30T03:12:02;95519.03;;;-1.03;81.39
6096;BME280;25081;42.698;23.298;2023-01-30T03:14:13;95512.95;;;-0.94;81.32
6096;BME280;25081;42.698;23.298;2023-01-30T03:16:24;95507.77;;;-0.90;81.40
6096;BME280;25081;42.698;23.298;2023-01-30T03:18:33;95502.64;;;-0.96;81.19
6096;BME280;25081;42.698;23.298;2023-01-30T03:20:43;95498.37;;;-1.06;81.50
6096;BME280;25081;42.698;23.298;2023-01-30T03:25:20;95493.94;;;-0.87;80.57
6096;BME280;25081;42.698;23.298;2023-01-30T03:27:30;95489.91;;;-0.81;80.67
6096;BME280;25081;42.698;23.298;2023-01-30T03:29:41;95485.23;;;-0.87;79.92
6096;BME280;25081;42.698;23.298;2023-01-30T03:31:51;95486.23;;;-0.98;80.17
6096;BME280;25081;42.698;23.298;2023-01-30T03:34:02;95482.75;;;-1.02;80.50
6096;BME280;25081;42.698;23.298;2023-01-30T03:36:12;95471.91;;;-0.94;80.88
6096;BME280;25081;42.698;23.298;2023-01-30T03:38:23;95476.86;;;-0.91;80.82
6096;BME280;25081;42.698;23.298;2023-01-30T03:40:33;95475.06;;;-0.90;80.71
6096;BME280;25081;42.698;23.298;2023-01-30T03:42:44;95468.55;;;-1.00;80.91
6096;BME280;25081;42.698;23.298;2023-01-30T03:44:54;95484.22;;;-0.90;81.14
6096;BME280;25081;42.698;23.298;2023-01-30T03:47:05;95483.52;;;-1.06;81.25
6096;BME280;25081;42.698;23.298;2023-01-30T03:49:15;95473.42;;;-1.14;81.57
6096;BME280;25081;42.698;23.298;2023-01-30T03:51:26;95473.66;;;-1.08;81.52
6096;BME280;25081;42.698;23.298;2023-01-30T03:53:36;95469.94;;;-0.96;81.11
6096;BME280;25081;42.698;23.298;2023-01-30T03:55:47;95469.22;;;-0.98;81.24
6096;BME280;25081;42.698;23.298;2023-01-30T03:57:57;95469.61;;;-1.16;81.37
6096;BME280;25081;42.698;23.298;2023-01-30T04:00:10;95472.43;;;-1.04;81.53
6096;BME280;25081;42.698;23.298;2023-01-30T04:02:20;95463.20;;;-0.84;81.36
6096;BME280;25081;42.698;23.298;2023-01-30T04:04:31;95462.31;;;-0.89;80.79
6096;BME280;25081;42.698;23.298;2023-01-30T04:06:42;95467.40;;;-0.88;80.51
6096;BME280;25081;42.698;23.298;2023-01-30T04:08:53;95461.59;;;-0.95;80.75
6096;BME280;25081;42.698;23.298;2023-01-30T04:11:04;95461.70;;;-0.60;86.23
6096;BME280;25081;42.698;23.298;2023-01-30T04:13:15;95458.44;;;-0.48;81.66
6096;BME280;25081;42.698;23.298;2023-01-30T04:15:25;95457.72;;;-0.77;80.09
6096;BME280;25081;42.698;23.298;2023-01-30T04:17:36;95465.58;;;-1.14;80.56
6096;BME280;25081;42.698;23.298;2023-01-30T04:19:46;95463.78;;;-1.14;81.00
6096;BME280;25081;42.698;23.298;2023-01-30T04:21:57;95471.75;;;-1.06;81.22
6096;BME280;25081;42.698;23.298;2023-01-30T04:24:08;95472.20;;;-1.06;81.47
6096;BME280;25081;42.698;23.298;2023-01-30T04:26:19;95464.24;;;-1.05;81.39
6096;BME280;25081;42.698;23.298;2023-01-30T04:28:29;95462.94;;;-1.05;81.27
6096;BME280;25081;42.698;23.298;2023-01-30T04:30:40;95460.84;;;-1.01;81.64
6096;BME280;25081;42.698;23.298;2023-01-30T04:32:50;95462.34;;;-0.99;81.42
6096;BME280;25081;42.698;23.298;2023-01-30T04:35:01;95465.90;;;-0.90;81.23
6096;BME280;25081;42.698;23.298;2023-01-30T04:37:12;95462.25;;;-1.17;81.43
6096;BME280;25081;42.698;23.298;2023-01-30T04:39:22;95454.43;;;-1.26;81.51
6096;BME280;25081;42.698;23.298;2023-01-30T04:41:33;95467.59;;;-1.22;82.26
6096;BME280;25081;42.698;23.298;2023-01-30T04:43:43;95459.41;;;-1.23;81.91
6096;BME280;25081;42.698;23.298;2023-01-30T04:45:54;95459.61;;;-1.30;82.61
6096;BME280;25081;42.698;23.298;2023-01-30T04:48:05;95463.81;;;-1.24;82.75
6096;BME280;25081;42.698;23.298;2023-01-30T04:50:17;95454.41;;;-1.17;82.46
6096;BME280;25081;42.698;23.298;2023-01-30T04:52:27;95452.50;;;-1.14;82.24
6096;BME280;25081;42.698;23.298;2023-01-30T04:54:38;95449.40;;;-1.14;82.13
6096;BME280;25081;42.698;23.298;2023-01-30T04:56:48;95447.65;;;-1.09;82.13
6096;BME280;25081;42.698;23.298;2023-01-30T04:58:59;95442.37;;;-1.13;82.51
6096;BME280;25081;42.698;23.298;2023-01-30T05:01:20;95436.36;;;-1.10;82.79
6096;BME280;25081;42.698;23.298;2023-01-30T05:03:28;95442.13;;;-1.30;82.84
6096;BME280;25081;42.698;23.298;2023-01-30T05:05:39;95441.45;;;-1.32;83.36
6096;BME280;25081;42.698;23.298;2023-01-30T05:07:49;95446.49;;;-1.34;83.47
6096;BME280;25081;42.698;23.298;2023-01-30T05:10:00;95442.06;;;-1.24;83.37
6096;BME280;25081;42.698;23.298;2023-01-30T05:12:11;95433.15;;;-1.18;83.69
6096;BME280;25081;42.698;23.298;2023-01-30T05:14:21;95444.80;;;-1.26;83.48
6096;BME280;25081;42.698;23.298;2023-01-30T05:16:32;95441.09;;;-1.23;83.89
6096;BME280;25081;42.698;23.298;2023-01-30T05:18:42;95443.61;;;-1.18;83.66
6096;BME280;25081;42.698;23.298;2023-01-30T05:20:53;95440.92;;;-1.12;83.80
6096;BME280;25081;42.698;23.298;2023-01-30T05:23:03;95448.11;;;-1.00;84.06
6096;BME280;25081;42.698;23.298;2023-01-30T05:25:14;95447.67;;;-1.19;83.79
6096;BME280;25081;42.698;23.298;2023-01-30T05:27:25;95446.86;;;-1.20;84.52
6096;BME280;25081;42.698;23.298;2023-01-30T05:29:35;95456.16;;;-1.21;84.82
6096;BME280;25081;42.698;23.298;2023-01-30T05:31:46;95454.70;;;-1.20;84.67
6096;BME280;25081;42.698;23.298;2023-01-30T05:33:56;95454.91;;;-1.27;84.78
6096;BME280;25081;42.698;23.298;2023-01-30T05:36:08;95448.31;;;-1.21;84.77
6096;BME280;25081;42.698;23.298;2023-01-30T05:38:19;95448.65;;;-1.20;84.90
6096;BME280;25081;42.698;23.298;2023-01-30T05:40:29;95449.88;;;-1.14;84.60
6096;BME280;25081;42.698;23.298;2023-01-30T05:42:40;95450.41;;;-1.11;83.93
6096;BME280;25081;42.698;23.298;2023-01-30T05:44:50;95452.36;;;-1.13;84.08
6096;BME280;25081;42.698;23.298;2023-01-30T05:47:01;95447.05;;;-1.17;84.05
6096;BME280;25081;42.698;23.298;2023-01-30T05:49:11;95453.52;;;-1.11;84.26
6096;BME280;25081;42.698;23.298;2023-01-30T05:51:22;95449.34;;;-0.95;84.08
6096;BME280;25081;42.698;23.298;2023-01-30T05:53:32;95450.86;;;-1.16;84.37
6096;BME280;25081;42.698;23.298;2023-01-30T05:55:43;95458.28;;;-1.21;84.70
6096;BME280;25081;42.698;23.298;2023-01-30T05:57:54;95455.30;;;-1.12;84.97
6096;BME280;25081;42.698;23.298;2023-01-30T06:00:07;95455.94;;;-1.14;85.20
6096;BME280;25081;42.698;23.298;2023-01-30T06:02:18;95455.30;;;-1.12;85.35
6096;BME280;25081;42.698;23.298;2023-01-30T06:04:29;95454.45;;;-1.03;84.93
6096;BME280;25081;42.698;23.298;2023-01-30T06:06:39;95464.17;;;-1.09;84.49
6096;BME280;25081;42.698;23.298;2023-01-30T06:08:52;95464.36;;;-1.06;84.68
6096;BME280;25081;42.698;23.298;2023-01-30T06:11:06;95461.59;;;-0.95;84.61
6096;BME280;25081;42.698;23.298;2023-01-30T06:13:17;95462.01;;;-1.00;84.31
6096;BME280;25081;42.698;23.298;2023-01-30T06:15:28;95462.31;;;-0.89;84.73
6096;BME280;25081;42.698;23.298;2023-01-30T06:17:42;95459.51;;;-0.92;84.65
6096;BME280;25081;42.698;23.298;2023-01-30T06:19:52;95453.12;;;-0.93;84.57
6096;BME280;25081;42.698;23.298;2023-01-30T06:22:03;95457.94;;;-0.98;84.83
6096;BME280;25081;42.698;23.298;2023-01-30T06:24:14;95453.92;;;-1.16;84.80
6096;BME280;25081;42.698;23.298;2023-01-30T06:26:24;95457.25;;;-1.14;85.70
6096;BME280;25081;42.698;23.298;2023-01-30T06:28:35;95457.78;;;-1.10;85.80
6096;BME280;25081;42.698;23.298;2023-01-30T06:30:45;95457.78;;;-1.10;85.83
6096;BME280;25081;42.698;23.298;2023-01-30T06:32:56;95455.17;;;-0.97;86.03
6096;BME280;25081;42.698;23.298;2023-01-30T06:35:08;95452.89;;;-0.86;85.85
6096;BME280;25081;42.698;23.298;2023-01-30T06:37:19;95456.11;;;-0.88;85.15
6096;BME280;25081;42.698;23.298;2023-01-30T06:39:29;95456.03;;;-0.82;85.28
6096;BME280;25081;42.698;23.298;2023-01-30T06:41:40;95449.41;;;-0.77;84.42
6096;BME280;25081;42.698;23.298;2023-01-30T06:43:50;95455.44;;;-0.90;83.77
6096;BME280;25081;42.698;23.298;2023-01-30T06:46:01;95451.81;;;-0.79;84.51
6096;BME280;25081;42.698;23.298;2023-01-30T06:48:11;95452.48;;;-0.77;84.60
6096;BME280;25081;42.698;23.298;2023-01-30T06:50:23;95453.71;;;-0.72;84.60
6096;BME280;25081;42.698;23.298;2023-01-30T06:52:32;95449.26;;;-0.62;84.19
6096;BME280;25081;42.698;23.298;2023-01-30T06:54:43;95448.58;;;-0.64;83.82
6096;BME280;25081;42.698;23.298;2023-01-30T06:56:53;95455.06;;;-0.68;83.53
6096;BME280;25081;42.698;23.298;2023-01-30T06:59:04;95458.65;;;-0.82;83.65
6096;BME280;25081;42.698;23.298;2023-01-30T07:01:14;95457.41;;;-1.02;84.72
6096;BME280;25081;42.698;23.298;2023-01-30T07:03:25;95461.71;;;-0.97;85.14
6096;BME280;25081;42.698;23.298;2023-01-30T07:05:37;95461.59;;;-0.95;84.33
6096;BME280;25081;42.698;23.298;2023-01-30T07:07:47;95456.48;;;-0.97;85.20
6096;BME280;25081;42.698;23.298;2023-01-30T07:09:58;95462.09;;;-0.82;84.28
6096;BME280;25081;42.698;23.298;2023-01-30T07:12:08;95468.89;;;-0.75;84.29
6096;BME280;25081;42.698;23.298;2023-01-30T07:14:19;95469.61;;;-0.69;83.87
6096;BME280;25081;42.698;23.298;2023-01-30T07:16:29;95465.94;;;-0.76;84.32
6096;BME280;25081;42.698;23.298;2023-01-30T07:18:40;95466.95;;;-0.73;84.56
6096;BME280;25081;42.698;23.298;2023-01-30T07:20:51;95469.34;;;-0.90;84.36
6096;BME280;25081;42.698;23.298;2023-01-30T07:23:01;95471.66;;;-0.77;84.75
6096;BME280;25081;42.698;23.298;2023-01-30T07:25:12;95468.94;;;-0.71;84.44
6096;BME280;25081;42.698;23.298;2023-01-30T07:27:22;95464.41;;;-0.79;84.04
6096;BME280;25081;42.698;23.298;2023-01-30T07:29:33;95466.27;;;-0.62;83.79
6096;BME280;25081;42.698;23.298;2023-01-30T07:31:43;95469.86;;;-0.63;83.40
6096;BME280;25081;42.698;23.298;2023-01-30T07:33:54;95469.86;;;-0.76;83.23
6096;BME280;25081;42.698;23.298;2023-01-30T07:36:05;95473.12;;;-0.88;83.65
6096;BME280;25081;42.698;23.298;2023-01-30T07:38:15;95481.37;;;-0.83;83.45
6096;BME280;25081;42.698;23.298;2023-01-30T07:40:27;95485.01;;;-0.80;83.92
6096;BME280;25081;42.698;23.298;2023-01-30T07:42:37;95487.52;;;-0.88;83.92
6096;BME280;25081;42.698;23.298;2023-01-30T07:44:48;95486.05;;;-0.77;83.79
6096;BME280;25081;42.698;23.298;2023-01-30T07:46:58;95486.88;;;-0.63;83.31
6096;BME280;25081;42.698;23.298;2023-01-30T07:49:09;95483.88;;;-0.54;83.00
6096;BME280;25081;42.698;23.298;2023-01-30T07:51:20;95488.67;;;-0.63;82.55
6096;BME280;25081;42.698;23.298;2023-01-30T07:53:31;95482.55;;;-0.68;82.73
6096;BME280;25081;42.698;23.298;2023-01-30T07:55:41;95480.52;;;-0.60;82.72
6096;BME280;25081;42.698;23.298;2023-01-30T07:57:51;95475.92;;;-0.62;82.15
6096;BME280;25081;42.698;23.298;2023-01-30T08:00:03;95471.02;;;-0.61;81.98
6096;BME280;25081;42.698;23.298;2023-01-30T08:02:14;95470.48;;;-0.51;81.86
6096;BME280;25081;42.698;23.298;2023-01-30T08:04:24;95463.98;;;-0.61;81.92
6096;BME280;25081;42.698;23.298;2023-01-30T08:06:35;95456.34;;;-0.44;81.82
6096;BME280;25081;42.698;23.298;2023-01-30T08:08:46;95447.82;;;-0.34;81.58
6096;BME280;25081;42.698;23.298;2023-01-30T08:10:56;95447.82;;;-0.15;81.84
6096;BME280;25081;42.698;23.298;2023-01-30T08:13:07;95445.44;;;-0.08;80.50
6096;BME280;25081;42.698;23.298;2023-01-30T08:15:18;95449.16;;;0.03;80.28
6096;BME280;25081;42.698;23.298;2023-01-30T08:17:28;95442.07;;;-0.18;80.09
6096;BME280;25081;42.698;23.298;2023-01-30T08:19:39;95445.60;;;-0.23;80.48
6096;BME280;25081;42.698;23.298;2023-01-30T08:21:49;95444.05;;;-0.16;80.69
6096;BME280;25081;42.698;23.298;2023-01-30T08:24:00;95438.47;;;-0.17;81.00
6096;BME280;25081;42.698;23.298;2023-01-30T08:26:10;95438.66;;;-0.15;80.95
6096;BME280;25081;42.698;23.298;2023-01-30T08:28:21;95438.47;;;-0.31;80.93
6096;BME280;25081;42.698;23.298;2023-01-30T08:30:32;95435.48;;;-0.36;80.77
6096;BME280;25081;42.698;23.298;2023-01-30T08:32:42;95172.09;;;-2.05;80.82
6096;BME280;25081;42.698;23.298;2023-01-30T08:34:53;95438.69;;;-0.28;81.06
6096;BME280;25081;42.698;23.298;2023-01-30T08:37:03;95431.71;;;-0.20;81.68
6096;BME280;25081;42.698;23.298;2023-01-30T08:39:15;95431.77;;;-0.16;80.20
6096;BME280;25081;42.698;23.298;2023-01-30T08:41:25;95425.89;;;-0.14;80.11
6096;BME280;25081;42.698;23.298;2023-01-30T08:43:36;95426.86;;;-0.15;79.70
6096;BME280;25081;42.698;23.298;2023-01-30T08:45:47;95430.46;;;-0.16;79.44
6096;BME280;25081;42.698;23.298;2023-01-30T08:47:59;95423.09;;;-0.30;79.66
6096;BME280;25081;42.698;23.298;2023-01-30T08:50:11;95422.81;;;-0.27;80.22
6096;BME280;25081;42.698;23.298;2023-01-30T08:52:21;95420.34;;;-0.11;80.21
6096;BME280;25081;42.698;23.298;2023-01-30T08:54:32;95424.28;;;0.07;80.82
6096;BME280;25081;42.698;23.298;2023-01-30T08:56:43;95410.44;;;-0.03;79.60
6096;BME280;25081;42.698;23.298;2023-01-30T08:58:53;95420.73;;;-0.06;79.05
6096;BME280;25081;42.698;23.298;2023-01-30T09:01:06;95404.62;;;2.97;94.37
6096;BME280;25081;42.698;23.298;2023-01-30T09:03:17;95396.27;;;5.90;93.68
6096;BME280;25081;42.698;23.298;2023-01-30T09:05:27;95390.95;;;4.91;64.77
6096;BME280;25081;42.698;23.298;2023-01-30T09:07:39;95398.41;;;2.82;65.98
6096;BME280;25081;42.698;23.298;2023-01-30T09:09:49;95397.33;;;1.61;70.45
6096;BME280;25081;42.698;23.298;2023-01-30T09:12:00;95401.08;;;1.08;72.41
6096;BME280;25081;42.698;23.298;2023-01-30T09:14:10;95416.46;;;0.77;73.74
6096;BME280;25081;42.698;23.298;2023-01-30T09:16:21;95401.77;;;0.58;74.16
6096;BME280;25081;42.698;23.298;2023-01-30T09:18:31;95401.36;;;0.09;75.80
6096;BME280;25081;42.698;23.298;2023-01-30T09:20:42;95401.66;;;0.02;76.43
6096;BME280;25081;42.698;23.298;2023-01-30T09:22:52;95398.46;;;0.12;76.78
6096;BME280;25081;42.698;23.298;2023-01-30T09:25:03;95394.81;;;0.09;76.55
6096;BME280;25081;42.698;23.298;2023-01-30T09:27:14;95395.69;;;-0.04;77.08
6096;BME280;25081;42.698;23.298;2023-01-30T09:29:24;95394.12;;;0.03;76.70
6096;BME280;25081;42.698;23.298;2023-01-30T09:31:35;95401.46;;;-0.18;77.53
6096;BME280;25081;42.698;23.298;2023-01-30T09:33:45;95403.06;;;-0.04;77.72
6096;BME280;25081;42.698;23.298;2023-01-30T09:35:56;95396.43;;;0.06;77.16
6096;BME280;25081;42.698;23.298;2023-01-30T09:38:07;95399.92;;;0.11;77.01
6096;BME280;25081;42.698;23.298;2023-01-30T09:40:20;95395.05;;;-0.02;77.87
6096;BME280;25081;42.698;23.298;2023-01-30T09:42:37;95391.88;;;-0.27;77.67
6096;BME280;25081;42.698;23.298;2023-01-30T09:45:02;95388.36;;;-0.18;78.32
6096;BME280;25081;42.698;23.298;2023-01-30T09:47:12;95380.52;;;-0.32;78.49
6096;BME280;25081;42.698;23.298;2023-01-30T09:49:27;95384.87;;;-0.23;78.88
6096;BME280;25081;42.698;23.298;2023-01-30T09:51:50;95380.94;;;-0.05;78.29
6096;BME280;25081;42.698;23.298;2023-01-30T09:54:15;95378.98;;;0.15;77.71
6096;BME280;25081;42.698;23.298;2023-01-30T09:56:25;95375.13;;;-0.13;77.48
6096;BME280;25081;42.698;23.298;2023-01-30T09:58:42;95373.98;;;-0.14;78.25
6096;BME280;25081;42.698;23.298;2023-01-30T10:00:53;95376.34;;;-0.07;78.17
6096;BME280;25081;42.698;23.298;2023-01-30T10:03:05;95372.44;;;-0.03;78.04
6096;BME280;25081;42.698;23.298;2023-01-30T10:05:15;95370.72;;;-0.12;78.21
6096;BME280;25081;42.698;23.298;2023-01-30T10:07:28;95362.70;;;-0.11;78.34
6096;BME280;25081;42.698;23.298;2023-01-30T10:09:40;95359.64;;;0.12;78.52
6096;BME280;25081;42.698;23.298;2023-01-30T10:11:59;95355.31;;;-0.15;77.22
6096;BME280;25081;42.698;23.298;2023-01-30T10:14:34;95352.20;;;-0.15;77.54
6096;BME280;25081;42.698;23.298;2023-01-30T10:16:48;95350.41;;;-0.14;77.53
6096;BME280;25081;42.698;23.298;2023-01-30T10:21:42;95339.84;;;-0.22;77.25
6096;BME280;25081;42.698;23.298;2023-01-30T10:23:58;95333.78;;;-0.23;76.61
6096;BME280;25081;42.698;23.298;2023-01-30T10:26:09;95329.34;;;-0.44;76.43
6096;BME280;25081;42.698;23.298;2023-01-30T10:28:21;95322.07;;;-0.50;77.10
6096;BME280;25081;42.698;23.298;2023-01-30T10:30:30;95322.48;;;-0.41;76.29
6096;BME280;25081;42.698;23.298;2023-01-30T10:32:42;95318.53;;;-0.45;75.96
6096;BME280;25081;42.698;23.298;2023-01-30T10:34:52;95315.58;;;-0.46;76.08
6096;BME280;25081;42.698;23.298;2023-01-30T10:37:04;95314.06;;;-0.49;75.98
6096;BME280;25081;42.698;23.298;2023-01-30T10:39:19;95311.09;;;-0.36;76.13
6096;BME280;25081;42.698;23.298;2023-01-30T10:41:29;95299.00;;;-0.33;75.44
6096;BME280;25081;42.698;23.298;2023-01-30T10:43:40;95294.73;;;-0.34;75.92
6096;BME280;25081;42.698;23.298;2023-01-30T10:45:59;95293.26;;;-0.15;75.68
6096;BME280;25081;42.698;23.298;2023-01-30T10:48:07;95289.84;;;-0.11;75.18
6096;BME280;25081;42.698;23.298;2023-01-30T10:50:17;95279.58;;;-0.05;75.05
6096;BME280;25081;42.698;23.298;2023-01-30T10:52:33;95281.38;;;-0.27;74.66
6096;BME280;25081;42.698;23.298;2023-01-30T10:54:48;95275.98;;;-0.25;75.43
6096;BME280;25081;42.698;23.298;2023-01-30T10:56:53;95270.47;;;0.04;75.03
6096;BME280;25081;42.698;23.298;2023-01-30T10:59:08;95256.17;;;-0.02;74.85
6096;BME280;25081;42.698;23.298;2023-01-30T11:01:18;95256.56;;;-0.19;74.33
6096;BME280;25081;42.698;23.298;2023-01-30T11:03:31;95253.47;;;-0.14;75.22
6096;BME280;25081;42.698;23.298;2023-01-30T11:05:43;95239.73;;;-0.12;74.18
6096;BME280;25081;42.698;23.298;2023-01-30T11:07:53;95236.63;;;-0.34;74.37
6096;BME280;25081;42.698;23.298;2023-01-30T11:10:09;95229.06;;;-0.19;74.22
6096;BME280;25081;42.698;23.298;2023-01-30T11:12:18;95235.10;;;0.08;74.17
6096;BME280;25081;42.698;23.298;2023-01-30T11:14:28;95224.81;;;0.40;73.30
6096;BME280;25081;42.698;23.298;2023-01-30T11:16:43;95223.62;;;0.69;72.73
6096;BME280;25081;42.698;23.298;2023-01-30T11:18:53;95205.91;;;0.75;71.91
6096;BME280;25081;42.698;23.298;2023-01-30T11:21:05;95210.30;;;0.66;72.30
6096;BME280;25081;42.698;23.298;2023-01-30T11:23:25;95199.54;;;0.35;72.06
6096;BME280;25081;42.698;23.298;2023-01-30T11:25:47;95197.97;;;0.12;72.78
6096;BME280;25081;42.698;23.298;2023-01-30T11:27:59;95202.67;;;0.05;73.36
6096;BME280;25081;42.698;23.298;2023-01-30T11:30:12;95195.27;;;0.30;73.36
6096;BME280;25081;42.698;23.298;2023-01-30T11:32:27;95190.36;;;0.35;72.70
6096;BME280;25081;42.698;23.298;2023-01-30T11:34:34;95183.31;;;0.36;72.66
6096;BME280;25081;42.698;23.298;2023-01-30T11:36:45;95180.69;;;0.32;72.10
6096;BME280;25081;42.698;23.298;2023-01-30T11:38:58;95181.67;;;0.31;72.20
6096;BME280;25081;42.698;23.298;2023-01-30T11:41:16;95177.41;;;0.34;72.50
6096;BME280;25081;42.698;23.298;2023-01-30T11:43:24;95173.23;;;0.49;72.26
6096;BME280;25081;42.698;23.298;2023-01-30T11:45:37;95168.36;;;0.24;72.57
6096;BME280;25081;42.698;23.298;2023-01-30T11:47:49;95162.20;;;0.03;72.81
6096;BME280;25081;42.698;23.298;2023-01-30T11:49:59;95155.22;;;0.16;73.71
6096;BME280;25081;42.698;23.298;2023-01-30T11:54:29;95138.94;;;0.46;73.29
6096;BME280;25081;42.698;23.298;2023-01-30T11:56:40;95140.51;;;0.81;72.30